sensor_id;sensor_type;location;lat;lon;timestamp;temperature;humidity
36416;DHT22;22447;44.530;18.620;2022-09-02T00:00:49;15.60;99.90
36416;DHT22;22447;44.530;18.620;2022-09-02T00:03:17;15.50;99.90
36416;DHT22;22447;44.530;18.620;2022-09-02T00:05:44;15.50;99.90
36416;DHT22;22447;44.530;18.620;2022-09-02T00:08:14;15.40;99.90
36416;DHT22;22447;44.530;18.620;2022-09-02T00:10:42;15.50;99.90
36416;DHT22;22447;44.530;18.620;2022-09-02T00:13:12;15.50;99.90
36416;DHT22;22447;44.530;18.620;2022-09-02T00:15:40;15.50;99.90
36416;DHT22;22447;44.530;18.620;2022-09-02T00:18:07;15.50;99.90
36416;DHT22;22447;44.530;18.620;2022-09-02T00:20:38;15.50;99.90
36416;DHT22;22447;44.530;18.620;2022-09-02T00:23:04;15.50;99.90
36416;DHT22;22447;44.530;18.620;2022-09-02T00:25:31;15.50;99.90
36416;DHT22;22447;44.530;18.620;2022-09-02T00:27:57;15.50;99.90
36416;DHT22;22447;44.530;18.620;2022-09-02T00:30:25;15.50;99.90
36416;DHT22;22447;44.530;18.620;2022-09-02T00:32:53;15.50;99.90
36416;DHT22;22447;44.530;18.620;2022-09-02T00:35:20;15.50;99.90
36416;DHT22;22447;44.530;18.620;2022-09-02T00:37:47;15.50;99.90
36416;DHT22;22447;44.530;18.620;2022-09-02T00:40:15;15.50;99.90
36416;DHT22;22447;44.530;18.620;2022-09-02T00:42:42;15.50;99.90
36416;DHT22;22447;44.530;18.620;2022-09-02T00:45:09;15.40;99.90
36416;DHT22;22447;44.530;18.620;2022-09-02T00:47:35;15.40;99.90
36416;DHT22;22447;44.530;18.620;2022-09-02T00:50:08;15.40;99.90
36416;DHT22;22447;44.530;18.620;2022-09-02T00:52:45;15.40;99.90
36416;DHT22;22447;44.530;18.620;2022-09-02T00:55:18;15.50;99.90
36416;DHT22;22447;44.530;18.620;2022-09-02T00:57:52;15.40;99.90
36416;DHT22;22447;44.530;18.620;2022-09-02T01:00:25;15.40;99.90
36416;DHT22;22447;44.530;18.620;2022-09-02T01:02:59;15.40;99.90
36416;DHT22;22447;44.530;18.620;2022-09-02T01:05:29;15.40;99.90
36416;DHT22;22447;44.530;18.620;2022-09-02T01:07:57;15.40;99.90
36416;DHT22;22447;44.530;18.620;2022-09-02T01:10:28;15.50;99.90
36416;DHT22;22447;44.530;18.620;2022-09-02T01:12:58;15.50;99.90
36416;DHT22;22447;44.530;18.620;2022-09-02T01:15:26;15.40;99.90
36416;DHT22;22447;44.530;18.620;2022-09-02T01:17:53;15.40;99.90
36416;DHT22;22447;44.530;18.620;2022-09-02T01:20:24;15.40;99.90
36416;DHT22;22447;44.530;18.620;2022-09-02T01:22:52;15.40;99.90
36416;DHT22;22447;44.530;18.620;2022-09-02T01:25:22;15.40;99.90
36416;DHT22;22447;44.530;18.620;2022-09-02T01:27:50;15.40;99.90
36416;DHT22;22447;44.530;18.620;2022-09-02T01:30:22;15.40;99.90
36416;DHT22;22447;44.530;18.620;2022-09-02T01:32:50;15.30;99.90
36416;DHT22;22447;44.530;18.620;2022-09-02T01:35:21;15.30;99.90
36416;DHT22;22447;44.530;18.620;2022-09-02T01:37:54;15.40;99.90
36416;DHT22;22447;44.530;18.620;2022-09-02T01:40:24;15.30;99.90
36416;DHT22;22447;44.530;18.620;2022-09-02T01:42:57;15.30;99.90
36416;DHT22;22447;44.530;18.620;2022-09-02T01:45:27;15.20;99.90
36416;DHT22;22447;44.530;18.620;2022-09-02T01:47:55;15.30;99.90
36416;DHT22;22447;44.530;18.620;2022-09-02T01:50:23;15.20;99.90
36416;DHT22;22447;44.530;18.620;2022-09-02T01:52:50;15.20;99.90
36416;DHT22;22447;44.530;18.620;2022-09-02T01:55:17;15.20;99.90
36416;DHT22;22447;44.530;18.620;2022-09-02T01:57:44;15.20;99.90
36416;DHT22;22447;44.530;18.620;2022-09-02T02:00:12;15.30;99.90
36416;DHT22;22447;44.530;18.620;2022-09-02T02:02:39;15.30;99.90
36416;DHT22;22447;44.530;18.620;2022-09-02T02:05:08;15.30;99.90
36416;DHT22;22447;44.530;18.620;2022-09-02T02:07:37;15.30;99.90
36416;DHT22;22447;44.530;18.620;2022-09-02T02:10:04;15.30;99.90
36416;DHT22;22447;44.530;18.620;2022-09-02T02:12:33;15.20;99.90
36416;DHT22;22447;44.530;18.620;2022-09-02T02:15:07;15.30;99.90
36416;DHT22;22447;44.530;18.620;2022-09-02T02:17:35;15.30;99.90
36416;DHT22;22447;44.530;18.620;2022-09-02T02:20:05;15.30;99.90
36416;DHT22;22447;44.530;18.620;2022-09-02T02:22:32;15.10;99.90
36416;DHT22;22447;44.530;18.620;2022-09-02T02:24:59;15.10;99.90
36416;DHT22;22447;44.530;18.620;2022-09-02T02:27:27;15.20;99.90
36416;DHT22;22447;44.530;18.620;2022-09-02T02:29:54;15.20;99.90
36416;DHT22;22447;44.530;18.620;2022-09-02T02:32:21;15.20;99.90
36416;DHT22;22447;44.530;18.620;2022-09-02T02:34:48;15.20;99.90
36416;DHT22;22447;44.530;18.620;2022-09-02T02:37:14;15.20;99.90
36416;DHT22;22447;44.530;18.620;2022-09-02T02:39:42;15.10;99.90
36416;DHT22;22447;44.530;18.620;2022-09-02T02:42:09;15.10;99.90
36416;DHT22;22447;44.530;18.620;2022-09-02T02:44:40;15.10;99.90
36416;DHT22;22447;44.530;18.620;2022-09-02T02:47:08;15.10;99.90
36416;DHT22;22447;44.530;18.620;2022-09-02T02:49:39;15.20;99.90
36416;DHT22;22447;44.530;18.620;2022-09-02T02:52:08;15.20;99.90
36416;DHT22;22447;44.530;18.620;2022-09-02T02:54:39;15.20;99.90
36416;DHT22;22447;44.530;18.620;2022-09-02T02:57:06;15.30;99.90
36416;DHT22;22447;44.530;18.620;2022-09-02T02:59:33;15.20;99.90
36416;DHT22;22447;44.530;18.620;2022-09-02T03:02:04;15.20;99.90
36416;DHT22;22447;44.530;18.620;2022-09-02T03:04:32;15.20;99.90
36416;DHT22;22447;44.530;18.620;2022-09-02T03:07:00;15.10;99.90
36416;DHT22;22447;44.530;18.620;2022-09-02T03:09:28;15.20;99.90
36416;DHT22;22447;44.530;18.620;2022-09-02T03:11:56;15.20;99.90
36416;DHT22;22447;44.530;18.620;2022-09-02T03:14:23;15.30;99.90
36416;DHT22;22447;44.530;18.620;2022-09-02T03:16:51;15.20;99.90
36416;DHT22;22447;44.530;18.620;2022-09-02T03:19:18;15.30;99.90
36416;DHT22;22447;44.530;18.620;2022-09-02T03:21:44;15.20;99.90
36416;DHT22;22447;44.530;18.620;2022-09-02T03:24:11;15.20;99.90
36416;DHT22;22447;44.530;18.620;2022-09-02T03:26:40;15.10;99.90
36416;DHT22;22447;44.530;18.620;2022-09-02T03:29:08;15.10;99.90
36416;DHT22;22447;44.530;18.620;2022-09-02T03:31:36;15.20;99.90
36416;DHT22;22447;44.530;18.620;2022-09-02T03:34:03;15.20;99.90
36416;DHT22;22447;44.530;18.620;2022-09-02T03:36:35;15.20;99.90
36416;DHT22;22447;44.530;18.620;2022-09-02T03:39:05;15.30;99.90
36416;DHT22;22447;44.530;18.620;2022-09-02T03:41:32;15.30;99.90
36416;DHT22;22447;44.530;18.620;2022-09-02T03:44:00;15.20;99.90
36416;DHT22;22447;44.530;18.620;2022-09-02T03:46:28;15.30;99.90
36416;DHT22;22447;44.530;18.620;2022-09-02T03:48:55;15.30;99.90
36416;DHT22;22447;44.530;18.620;2022-09-02T03:51:22;15.30;99.90
36416;DHT22;22447;44.530;18.620;2022-09-02T03:53:49;15.30;99.90
36416;DHT22;22447;44.530;18.620;2022-09-02T03:56:17;15.30;99.90
36416;DHT22;22447;44.530;18.620;2022-09-02T03:58:45;15.30;99.90
36416;DHT22;22447;44.530;18.620;2022-09-02T04:01:18;15.30;99.90
36416;DHT22;22447;44.530;18.620;2022-09-02T04:03:46;15.30;99.90
36416;DHT22;22447;44.530;18.620;2022-09-02T04:06:18;15.30;99.90
36416;DHT22;22447;44.530;18.620;2022-09-02T04:08:47;15.40;99.90
36416;DHT22;22447;44.530;18.620;2022-09-02T04:11:17;15.40;99.90
36416;DHT22;22447;44.530;18.620;2022-09-02T04:13:47;15.40;99.90
36416;DHT22;22447;44.530;18.620;2022-09-02T04:16:19;15.40;99.90
36416;DHT22;22447;44.530;18.620;2022-09-02T04:18:47;15.40;99.90
36416;DHT22;22447;44.530;18.620;2022-09-02T04:21:13;15.30;99.90
36416;DHT22;22447;44.530;18.620;2022-09-02T04:23:41;15.30;99.90
36416;DHT22;22447;44.530;18.620;2022-09-02T04:26:11;15.20;99.90
36416;DHT22;22447;44.530;18.620;2022-09-02T04:28:38;15.30;99.90
36416;DHT22;22447;44.530;18.620;2022-09-02T04:31:11;15.30;99.90
36416;DHT22;22447;44.530;18.620;2022-09-02T04:33:40;15.30;99.90
36416;DHT22;22447;44.530;18.620;2022-09-02T04:36:14;15.40;99.90
36416;DHT22;22447;44.530;18.620;2022-09-02T04:38:41;15.30;99.90
36416;DHT22;22447;44.530;18.620;2022-09-02T04:41:09;15.30;99.90
36416;DHT22;22447;44.530;18.620;2022-09-02T04:43:36;15.30;99.90
36416;DHT22;22447;44.530;18.620;2022-09-02T04:46:05;15.30;99.90
36416;DHT22;22447;44.530;18.620;2022-09-02T04:48:34;15.30;99.90
36416;DHT22;22447;44.530;18.620;2022-09-02T04:51:09;15.20;99.90
36416;DHT22;22447;44.530;18.620;2022-09-02T04:53:38;15.30;99.90
36416;DHT22;22447;44.530;18.620;2022-09-02T04:56:06;15.30;99.90
36416;DHT22;22447;44.530;18.620;2022-09-02T04:58:34;15.30;99.90
36416;DHT22;22447;44.530;18.620;2022-09-02T05:01:11;15.20;99.90
36416;DHT22;22447;44.530;18.620;2022-09-02T05:03:42;15.20;99.90
36416;DHT22;22447;44.530;18.620;2022-09-02T05:06:12;15.20;99.90
36416;DHT22;22447;44.530;18.620;2022-09-02T05:08:40;15.30;99.90
36416;DHT22;22447;44.530;18.620;2022-09-02T05:11:20;15.40;99.90
36416;DHT22;22447;44.530;18.620;2022-09-02T05:13:49;15.50;99.90
36416;DHT22;22447;44.530;18.620;2022-09-02T05:16:25;15.30;99.90
36416;DHT22;22447;44.530;18.620;2022-09-02T05:18:53;15.40;99.90
36416;DHT22;22447;44.530;18.620;2022-09-02T05:21:21;15.40;99.90
36416;DHT22;22447;44.530;18.620;2022-09-02T05:23:51;15.30;99.90
36416;DHT22;22447;44.530;18.620;2022-09-02T05:26:18;15.40;99.90
36416;DHT22;22447;44.530;18.620;2022-09-02T05:28:46;15.40;99.90
36416;DHT22;22447;44.530;18.620;2022-09-02T05:31:14;15.50;99.90
36416;DHT22;22447;44.530;18.620;2022-09-02T05:33:43;15.50;99.90
36416;DHT22;22447;44.530;18.620;2022-09-02T05:36:15;15.50;99.90
36416;DHT22;22447;44.530;18.620;2022-09-02T05:38:43;15.40;99.90
36416;DHT22;22447;44.530;18.620;2022-09-02T05:41:14;15.50;99.90
36416;DHT22;22447;44.530;18.620;2022-09-02T05:43:43;15.40;99.90
36416;DHT22;22447;44.530;18.620;2022-09-02T05:46:13;15.40;99.90
36416;DHT22;22447;44.530;18.620;2022-09-02T05:48:44;15.40;99.90
36416;DHT22;22447;44.530;18.620;2022-09-02T05:51:29;15.50;99.90
36416;DHT22;22447;44.530;18.620;2022-09-02T05:53:58;15.50;99.90
36416;DHT22;22447;44.530;18.620;2022-09-02T05:56:27;15.40;99.90
36416;DHT22;22447;44.530;18.620;2022-09-02T05:58:57;15.50;99.90
36416;DHT22;22447;44.530;18.620;2022-09-02T06:01:25;15.50;99.90
36416;DHT22;22447;44.530;18.620;2022-09-02T06:03:53;15.40;99.90
36416;DHT22;22447;44.530;18.620;2022-09-02T06:06:21;15.50;99.90
36416;DHT22;22447;44.530;18.620;2022-09-02T06:08:49;15.50;99.90
36416;DHT22;22447;44.530;18.620;2022-09-02T06:11:16;15.50;99.90
36416;DHT22;22447;44.530;18.620;2022-09-02T06:13:43;15.50;99.90
36416;DHT22;22447;44.530;18.620;2022-09-02T06:16:29;15.50;99.90
36416;DHT22;22447;44.530;18.620;2022-09-02T06:18:57;15.50;99.90
36416;DHT22;22447;44.530;18.620;2022-09-02T06:21:25;15.60;99.90
36416;DHT22;22447;44.530;18.620;2022-09-02T06:23:56;15.50;99.90
36416;DHT22;22447;44.530;18.620;2022-09-02T06:26:23;15.50;99.90
36416;DHT22;22447;44.530;18.620;2022-09-02T06:28:52;15.50;99.90
36416;DHT22;22447;44.530;18.620;2022-09-02T06:31:22;15.50;99.90
36416;DHT22;22447;44.530;18.620;2022-09-02T06:33:55;15.60;99.90
36416;DHT22;22447;44.530;18.620;2022-09-02T06:51:31;15.50;99.90
36416;DHT22;22447;44.530;18.620;2022-09-02T06:53:59;15.60;99.90
36416;DHT22;22447;44.530;18.620;2022-09-02T06:56:29;15.60;99.90
36416;DHT22;22447;44.530;18.620;2022-09-02T06:58:55;15.70;99.90
36416;DHT22;22447;44.530;18.620;2022-09-02T07:01:35;15.60;99.90
36416;DHT22;22447;44.530;18.620;2022-09-02T07:04:03;15.60;99.90
36416;DHT22;22447;44.530;18.620;2022-09-02T07:06:53;15.70;99.90
36416;DHT22;22447;44.530;18.620;2022-09-02T07:09:23;15.70;99.90
36416;DHT22;22447;44.530;18.620;2022-09-02T07:11:50;15.70;99.90
36416;DHT22;22447;44.530;18.620;2022-09-02T07:14:19;15.70;99.90
36416;DHT22;22447;44.530;18.620;2022-09-02T07:16:51;15.70;99.90
36416;DHT22;22447;44.530;18.620;2022-09-02T07:19:18;15.70;99.90
36416;DHT22;22447;44.530;18.620;2022-09-02T07:21:45;15.80;99.90
36416;DHT22;22447;44.530;18.620;2022-09-02T07:24:12;15.80;99.90
36416;DHT22;22447;44.530;18.620;2022-09-02T07:26:41;15.80;99.90
36416;DHT22;22447;44.530;18.620;2022-09-02T07:29:08;15.70;99.90
36416;DHT22;22447;44.530;18.620;2022-09-02T07:31:36;15.70;99.90
36416;DHT22;22447;44.530;18.620;2022-09-02T07:34:06;15.70;99.90
36416;DHT22;22447;44.530;18.620;2022-09-02T07:36:37;15.70;99.90
36416;DHT22;22447;44.530;18.620;2022-09-02T07:39:06;15.80;99.90
36416;DHT22;22447;44.530;18.620;2022-09-02T07:41:34;15.80;99.90
36416;DHT22;22447;44.530;18.620;2022-09-02T07:44:03;15.90;99.90
36416;DHT22;22447;44.530;18.620;2022-09-02T07:46:30;15.80;99.90
36416;DHT22;22447;44.530;18.620;2022-09-02T07:48:58;15.90;99.90
36416;DHT22;22447;44.530;18.620;2022-09-02T07:51:33;15.90;99.90
36416;DHT22;22447;44.530;18.620;2022-09-02T07:54:02;16.00;99.90
36416;DHT22;22447;44.530;18.620;2022-09-02T07:56:28;16.00;99.90
36416;DHT22;22447;44.530;18.620;2022-09-02T07:58:54;16.00;99.90
36416;DHT22;22447;44.530;18.620;2022-09-02T08:01:20;16.10;99.90
36416;DHT22;22447;44.530;18.620;2022-09-02T08:03:47;16.10;99.90
36416;DHT22;22447;44.530;18.620;2022-09-02T08:06:13;16.20;99.90
36416;DHT22;22447;44.530;18.620;2022-09-02T08:08:41;16.30;99.90
36416;DHT22;22447;44.530;18.620;2022-09-02T08:11:07;16.30;99.90
36416;DHT22;22447;44.530;18.620;2022-09-02T08:13:34;16.30;99.90
36416;DHT22;22447;44.530;18.620;2022-09-02T08:16:01;16.40;99.90
36416;DHT22;22447;44.530;18.620;2022-09-02T08:18:28;16.40;99.90
36416;DHT22;22447;44.530;18.620;2022-09-02T08:20:54;16.40;99.90
36416;DHT22;22447;44.530;18.620;2022-09-02T08:23:20;16.50;99.90
36416;DHT22;22447;44.530;18.620;2022-09-02T08:25:46;16.50;99.90
36416;DHT22;22447;44.530;18.620;2022-09-02T08:28:12;16.50;99.90
36416;DHT22;22447;44.530;18.620;2022-09-02T08:30:39;16.50;99.90
36416;DHT22;22447;44.530;18.620;2022-09-02T08:33:05;16.50;99.90
36416;DHT22;22447;44.530;18.620;2022-09-02T08:35:31;16.50;99.90
36416;DHT22;22447;44.530;18.620;2022-09-02T08:37:58;16.50;99.90
36416;DHT22;22447;44.530;18.620;2022-09-02T08:40:34;16.50;99.90
36416;DHT22;22447;44.530;18.620;2022-09-02T08:43:01;16.60;99.90
36416;DHT22;22447;44.530;18.620;2022-09-02T08:45:32;16.60;99.90
36416;DHT22;22447;44.530;18.620;2022-09-02T08:50:57;16.60;99.90
36416;DHT22;22447;44.530;18.620;2022-09-02T08:53:39;16.60;99.90
36416;DHT22;22447;44.530;18.620;2022-09-02T08:56:12;16.70;99.90
36416;DHT22;22447;44.530;18.620;2022-09-02T08:58:42;16.70;99.90
36416;DHT22;22447;44.530;18.620;2022-09-02T09:01:17;16.80;99.90
36416;DHT22;22447;44.530;18.620;2022-09-02T09:09:39;16.80;99.90
36416;DHT22;22447;44.530;18.620;2022-09-02T09:15:08;16.80;99.90
36416;DHT22;22447;44.530;18.620;2022-09-02T09:20:20;16.70;99.90
36416;DHT22;22447;44.530;18.620;2022-09-02T09:22:48;16.50;99.90
36416;DHT22;22447;44.530;18.620;2022-09-02T09:25:17;16.50;99.90
36416;DHT22;22447;44.530;18.620;2022-09-02T09:27:44;16.50;99.90
36416;DHT22;22447;44.530;18.620;2022-09-02T09:30:11;16.50;99.90
36416;DHT22;22447;44.530;18.620;2022-09-02T09:32:45;16.50;99.90
36416;DHT22;22447;44.530;18.620;2022-09-02T09:35:17;16.50;99.90
36416;DHT22;22447;44.530;18.620;2022-09-02T09:37:45;16.60;99.90
36416;DHT22;22447;44.530;18.620;2022-09-02T09:45:35;16.60;99.90
36416;DHT22;22447;44.530;18.620;2022-09-02T09:51:10;16.50;99.90
36416;DHT22;22447;44.530;18.620;2022-09-02T09:53:37;16.60;99.90
36416;DHT22;22447;44.530;18.620;2022-09-02T10:01:19;16.60;99.90
36416;DHT22;22447;44.530;18.620;2022-09-02T10:09:02;16.70;99.90
36416;DHT22;22447;44.530;18.620;2022-09-02T10:11:30;16.70;99.90
36416;DHT22;22447;44.530;18.620;2022-09-02T10:14:02;16.70;99.90
36416;DHT22;22447;44.530;18.620;2022-09-02T10:19:43;16.80;99.90
36416;DHT22;22447;44.530;18.620;2022-09-02T10:47:38;17.20;99.90
36416;DHT22;22447;44.530;18.620;2022-09-02T10:55:36;17.60;99.90
36416;DHT22;22447;44.530;18.620;2022-09-02T10:58:16;17.80;99.90
36416;DHT22;22447;44.530;18.620;2022-09-02T11:00:46;18.10;99.90
36416;DHT22;22447;44.530;18.620;2022-09-02T11:06:39;18.70;99.90
36416;DHT22;22447;44.530;18.620;2022-09-02T11:09:13;19.10;99.90
36416;DHT22;22447;44.530;18.620;2022-09-02T11:11:50;19.30;99.90
36416;DHT22;22447;44.530;18.620;2022-09-02T11:14:33;19.40;99.90
36416;DHT22;22447;44.530;18.620;2022-09-02T11:17:23;19.30;99.90
36416;DHT22;22447;44.530;18.620;2022-09-02T11:20:27;19.20;99.90
36416;DHT22;22447;44.530;18.620;2022-09-02T11:26:53;20.00;99.90
36416;DHT22;22447;44.530;18.620;2022-09-02T11:29:08;20.30;99.90
36416;DHT22;22447;44.530;18.620;2022-09-02T11:32:03;20.50;99.90
36416;DHT22;22447;44.530;18.620;2022-09-02T11:34:36;20.70;99.20
36416;DHT22;22447;44.530;18.620;2022-09-02T11:37:06;20.60;99.50
36416;DHT22;22447;44.530;18.620;2022-09-02T11:39:39;20.20;97.60
36416;DHT22;22447;44.530;18.620;2022-09-02T11:42:10;20.60;99.20
36416;DHT22;22447;44.530;18.620;2022-09-02T11:50:23;20.50;95.30
36416;DHT22;22447;44.530;18.620;2022-09-02T11:55:40;20.40;98.00
36416;DHT22;22447;44.530;18.620;2022-09-02T11:58:32;20.30;97.40
36416;DHT22;22447;44.530;18.620;2022-09-02T12:01:27;19.90;99.90
36416;DHT22;22447;44.530;18.620;2022-09-02T12:04:02;19.80;98.40
36416;DHT22;22447;44.530;18.620;2022-09-02T12:06:30;19.90;99.90
36416;DHT22;22447;44.530;18.620;2022-09-02T12:09:00;19.90;99.70
36416;DHT22;22447;44.530;18.620;2022-09-02T12:11:46;19.60;98.80
36416;DHT22;22447;44.530;18.620;2022-09-02T12:17:04;19.60;99.90
36416;DHT22;22447;44.530;18.620;2022-09-02T12:19:42;19.50;99.90
36416;DHT22;22447;44.530;18.620;2022-09-02T12:25:00;18.70;99.90
36416;DHT22;22447;44.530;18.620;2022-09-02T12:27:36;18.70;99.90
36416;DHT22;22447;44.530;18.620;2022-09-02T12:30:14;18.90;99.90
36416;DHT22;22447;44.530;18.620;2022-09-02T12:36:42;19.00;99.90
36416;DHT22;22447;44.530;18.620;2022-09-02T12:38:24;19.00;99.90
36416;DHT22;22447;44.530;18.620;2022-09-02T12:43:53;18.80;99.90
36416;DHT22;22447;44.530;18.620;2022-09-02T12:46:43;18.70;99.90
36416;DHT22;22447;44.530;18.620;2022-09-02T12:49:45;18.60;99.90
36416;DHT22;22447;44.530;18.620;2022-09-02T12:55:12;18.50;99.90
36416;DHT22;22447;44.530;18.620;2022-09-02T12:57:42;18.50;99.90
36416;DHT22;22447;44.530;18.620;2022-09-02T13:00:14;18.40;99.90
36416;DHT22;22447;44.530;18.620;2022-09-02T13:26:04;18.10;99.90
36416;DHT22;22447;44.530;18.620;2022-09-02T13:31:25;18.00;99.90
36416;DHT22;22447;44.530;18.620;2022-09-02T13:34:11;18.10;99.90
36416;DHT22;22447;44.530;18.620;2022-09-02T13:36:45;18.10;99.90
36416;DHT22;22447;44.530;18.620;2022-09-02T13:39:19;18.20;99.90
36416;DHT22;22447;44.530;18.620;2022-09-02T13:41:46;18.10;99.90
36416;DHT22;22447;44.530;18.620;2022-09-02T13:46:57;18.10;99.90
36416;DHT22;22447;44.530;18.620;2022-09-02T13:49:32;18.20;99.90
36416;DHT22;22447;44.530;18.620;2022-09-02T13:51:58;18.20;99.90
36416;DHT22;22447;44.530;18.620;2022-09-02T13:54:36;18.10;99.90
36416;DHT22;22447;44.530;18.620;2022-09-02T13:57:11;18.30;99.90
36416;DHT22;22447;44.530;18.620;2022-09-02T13:59:50;18.30;99.90
36416;DHT22;22447;44.530;18.620;2022-09-02T14:02:24;18.40;99.90
36416;DHT22;22447;44.530;18.620;2022-09-02T14:05:03;18.40;99.90
36416;DHT22;22447;44.530;18.620;2022-09-02T14:07:36;18.30;99.90
36416;DHT22;22447;44.530;18.620;2022-09-02T14:10:07;18.30;99.90
36416;DHT22;22447;44.530;18.620;2022-09-02T14:12:35;18.20;99.90
36416;DHT22;22447;44.530;18.620;2022-09-02T14:15:04;18.30;99.90
36416;DHT22;22447;44.530;18.620;2022-09-02T14:17:31;18.50;99.90
36416;DHT22;22447;44.530;18.620;2022-09-02T14:20:19;18.50;99.90
36416;DHT22;22447;44.530;18.620;2022-09-02T14:22:56;18.60;99.90
36416;DHT22;22447;44.530;18.620;2022-09-02T14:25:24;18.70;99.90
36416;DHT22;22447;44.530;18.620;2022-09-02T14:27:52;18.80;99.90
36416;DHT22;22447;44.530;18.620;2022-09-02T14:30:29;18.90;99.90
36416;DHT22;22447;44.530;18.620;2022-09-02T14:33:15;18.90;99.90
36416;DHT22;22447;44.530;18.620;2022-09-02T14:35:41;18.90;99.90
36416;DHT22;22447;44.530;18.620;2022-09-02T14:38:07;18.90;99.90
36416;DHT22;22447;44.530;18.620;2022-09-02T14:40:36;18.90;99.90
36416;DHT22;22447;44.530;18.620;2022-09-02T14:43:02;18.80;99.90
36416;DHT22;22447;44.530;18.620;2022-09-02T14:45:31;18.70;99.90
36416;DHT22;22447;44.530;18.620;2022-09-02T14:48:09;18.80;99.90
36416;DHT22;22447;44.530;18.620;2022-09-02T14:50:36;18.70;99.90
36416;DHT22;22447;44.530;18.620;2022-09-02T14:53:05;18.60;99.90
36416;DHT22;22447;44.530;18.620;2022-09-02T14:55:52;18.70;99.90
36416;DHT22;22447;44.530;18.620;2022-09-02T14:58:24;18.60;99.90
36416;DHT22;22447;44.530;18.620;2022-09-02T15:00:52;18.60;99.90
36416;DHT22;22447;44.530;18.620;2022-09-02T15:03:22;18.60;99.90
36416;DHT22;22447;44.530;18.620;2022-09-02T15:05:48;18.50;99.90
36416;DHT22;22447;44.530;18.620;2022-09-02T15:08:15;18.40;99.90
36416;DHT22;22447;44.530;18.620;2022-09-02T15:10:42;18.40;99.90
36416;DHT22;22447;44.530;18.620;2022-09-02T15:13:26;18.30;99.90
36416;DHT22;22447;44.530;18.620;2022-09-02T15:15:53;18.30;99.90
36416;DHT22;22447;44.530;18.620;2022-09-02T15:18:21;18.20;99.90
36416;DHT22;22447;44.530;18.620;2022-09-02T15:20:46;18.20;99.90
36416;DHT22;22447;44.530;18.620;2022-09-02T15:23:14;18.30;99.90
36416;DHT22;22447;44.530;18.620;2022-09-02T15:25:40;18.30;99.90
36416;DHT22;22447;44.530;18.620;2022-09-02T15:28:06;18.40;99.90
36416;DHT22;22447;44.530;18.620;2022-09-02T15:30:33;18.40;99.90
36416;DHT22;22447;44.530;18.620;2022-09-02T15:33:06;18.50;99.90
36416;DHT22;22447;44.530;18.620;2022-09-02T15:35:33;18.50;99.90
36416;DHT22;22447;44.530;18.620;2022-09-02T15:37:59;18.60;99.90
36416;DHT22;22447;44.530;18.620;2022-09-02T15:40:27;18.70;99.90
36416;DHT22;22447;44.530;18.620;2022-09-02T15:42:54;18.70;99.90
36416;DHT22;22447;44.530;18.620;2022-09-02T15:45:21;18.80;99.90
36416;DHT22;22447;44.530;18.620;2022-09-02T15:47:47;18.70;99.90
36416;DHT22;22447;44.530;18.620;2022-09-02T15:50:13;18.70;99.90
36416;DHT22;22447;44.530;18.620;2022-09-02T15:52:39;18.80;99.90
36416;DHT22;22447;44.530;18.620;2022-09-02T15:55:05;18.80;99.90
36416;DHT22;22447;44.530;18.620;2022-09-02T15:57:31;18.80;99.90
36416;DHT22;22447;44.530;18.620;2022-09-02T15:59:57;18.80;99.90
36416;DHT22;22447;44.530;18.620;2022-09-02T16:02:34;18.80;99.90
36416;DHT22;22447;44.530;18.620;2022-09-02T16:05:00;18.80;99.90
36416;DHT22;22447;44.530;18.620;2022-09-02T16:07:26;18.60;99.90
36416;DHT22;22447;44.530;18.620;2022-09-02T16:09:52;18.40;99.90
36416;DHT22;22447;44.530;18.620;2022-09-02T16:12:18;18.30;99.90
36416;DHT22;22447;44.530;18.620;2022-09-02T16:14:44;18.20;99.90
36416;DHT22;22447;44.530;18.620;2022-09-02T16:17:13;18.20;99.90
36416;DHT22;22447;44.530;18.620;2022-09-02T16:19:41;18.10;99.90
36416;DHT22;22447;44.530;18.620;2022-09-02T16:22:06;18.10;99.90
36416;DHT22;22447;44.530;18.620;2022-09-02T16:24:32;18.00;99.90
36416;DHT22;22447;44.530;18.620;2022-09-02T16:26:58;18.10;99.90
36416;DHT22;22447;44.530;18.620;2022-09-02T16:29:24;18.30;99.90
36416;DHT22;22447;44.530;18.620;2022-09-02T16:31:51;18.30;99.90
36416;DHT22;22447;44.530;18.620;2022-09-02T16:34:18;18.30;99.90
36416;DHT22;22447;44.530;18.620;2022-09-02T16:36:47;18.30;99.90
36416;DHT22;22447;44.530;18.620;2022-09-02T16:39:15;18.30;99.90
36416;DHT22;22447;44.530;18.620;2022-09-02T16:41:44;18.30;99.90
36416;DHT22;22447;44.530;18.620;2022-09-02T16:44:16;18.30;99.90
36416;DHT22;22447;44.530;18.620;2022-09-02T16:46:43;18.30;99.90
36416;DHT22;22447;44.530;18.620;2022-09-02T16:49:11;18.20;99.90
36416;DHT22;22447;44.530;18.620;2022-09-02T16:51:38;18.20;99.90
36416;DHT22;22447;44.530;18.620;2022-09-02T16:54:06;18.20;99.90
36416;DHT22;22447;44.530;18.620;2022-09-02T16:56:33;18.00;99.90
36416;DHT22;22447;44.530;18.620;2022-09-02T16:59:02;18.00;99.90
36416;DHT22;22447;44.530;18.620;2022-09-02T17:01:29;18.00;99.90
36416;DHT22;22447;44.530;18.620;2022-09-02T17:03:56;18.00;99.90
36416;DHT22;22447;44.530;18.620;2022-09-02T17:06:21;17.90;99.90
36416;DHT22;22447;44.530;18.620;2022-09-02T17:08:47;17.90;99.90
36416;DHT22;22447;44.530;18.620;2022-09-02T17:13:58;17.80;99.90
36416;DHT22;22447;44.530;18.620;2022-09-02T17:16:31;17.80;99.90
36416;DHT22;22447;44.530;18.620;2022-09-02T17:18:57;17.70;99.90
36416;DHT22;22447;44.530;18.620;2022-09-02T17:21:42;17.60;99.90
36416;DHT22;22447;44.530;18.620;2022-09-02T17:24:10;17.50;99.90
36416;DHT22;22447;44.530;18.620;2022-09-02T17:26:38;17.60;99.90
36416;DHT22;22447;44.530;18.620;2022-09-02T17:29:13;17.60;99.90
36416;DHT22;22447;44.530;18.620;2022-09-02T17:31:43;17.50;99.90
36416;DHT22;22447;44.530;18.620;2022-09-02T17:34:09;17.40;99.90
36416;DHT22;22447;44.530;18.620;2022-09-02T17:36:37;17.30;99.90
36416;DHT22;22447;44.530;18.620;2022-09-02T17:39:09;17.30;99.90
36416;DHT22;22447;44.530;18.620;2022-09-02T17:41:35;17.20;99.90
36416;DHT22;22447;44.530;18.620;2022-09-02T17:44:33;16.90;99.90
36416;DHT22;22447;44.530;18.620;2022-09-02T17:47:05;16.70;99.90
36416;DHT22;22447;44.530;18.620;2022-09-02T17:49:35;16.70;99.90
36416;DHT22;22447;44.530;18.620;2022-09-02T17:52:03;16.60;99.90
36416;DHT22;22447;44.530;18.620;2022-09-02T17:54:29;16.50;99.90
36416;DHT22;22447;44.530;18.620;2022-09-02T17:59:34;16.30;99.90